AFR1235 EDDB-LFPG
Flight info
| Callsign | AFR1235 |
|---|---|
| Flight time | 1h 27m |
| Altitude | 38000 |
| Route | KISUC1N KISUC Z20 MAG Z92 ABGUS DCT WRB DCT IBESA DCT GESLO DCT TOLVU/N0431F370 DCT RAPOR DCT VEDUS |
| Aircraft | A320/M-SDE3FGHIRWY/LB1 |
Departure
| Time | 2026-05-01 13:38 |
|---|---|
| Airport | Berlin Brandenburg Airport (EDDB) |
Arrival
| Time | 2026-05-01 15:06 |
|---|---|
| Airport | Charles de Gaulle International Airport (LFPG) |
| Time | Latitude | Longitude | Altitude | Speed | Heading |
|---|---|---|---|---|---|
| 2026-05-01 13:00 | 52.36138 | 13.50751 | 182 ft | 0 kts | 70° |
| 2026-05-01 13:29 | 52.36129 | 13.50713 | 155 ft | 3 kts | 69° |
| 2026-05-01 13:30 | 52.36126 | 13.50602 | 155 ft | 3 kts | 155° |
| 2026-05-01 13:31 | 52.36129 | 13.50599 | 155 ft | 0 kts | 159° |
| 2026-05-01 13:33 | 52.36098 | 13.50619 | 154 ft | 7 kts | 159° |
| 2026-05-01 13:34 | 52.35923 | 13.50731 | 154 ft | 17 kts | 159° |
| 2026-05-01 13:34 | 52.35706 | 13.50837 | 154 ft | 12 kts | 194° |
| 2026-05-01 13:35 | 52.35581 | 13.50690 | 154 ft | 0 kts | 219° |
| 2026-05-01 13:36 | 52.35565 | 13.50669 | 156 ft | 7 kts | 219° |
| 2026-05-01 13:36 | 52.35414 | 13.50449 | 154 ft | 19 kts | 226° |
| 2026-05-01 13:37 | 52.35343 | 13.50215 | 154 ft | 35 kts | 248° |
| 2026-05-01 13:37 | 52.35161 | 13.49450 | 157 ft | 105 kts | 249° |
| 2026-05-01 13:37 | 52.34830 | 13.48058 | 156 ft | 159 kts | 249° |
| 2026-05-01 13:37 | 52.34406 | 13.46304 | 672 ft | 165 kts | 248° |
| 2026-05-01 13:38 | 52.33008 | 13.43274 | 2039 ft | 172 kts | 229° |
| 2026-05-01 13:38 | 52.32205 | 13.41823 | 2727 ft | 172 kts | 230° |
| 2026-05-01 13:38 | 52.31413 | 13.40348 | 3318 ft | 177 kts | 230° |
| 2026-05-01 13:39 | 52.30563 | 13.38753 | 3642 ft | 199 kts | 229° |
| 2026-05-01 13:39 | 52.29600 | 13.36946 | 3965 ft | 223 kts | 229° |
| 2026-05-01 13:39 | 52.28537 | 13.34958 | 4519 ft | 237 kts | 228° |
| 2026-05-01 13:39 | 52.27437 | 13.32907 | 5353 ft | 241 kts | 227° |
| 2026-05-01 13:40 | 52.26322 | 13.30831 | 6205 ft | 246 kts | 227° |
| 2026-05-01 13:40 | 52.25178 | 13.28702 | 7024 ft | 251 kts | 227° |
| 2026-05-01 13:40 | 52.24169 | 13.26338 | 7763 ft | 260 kts | 242° |
| 2026-05-01 13:40 | 52.23430 | 13.23540 | 8163 ft | 283 kts | 247° |
| 2026-05-01 13:41 | 52.22669 | 13.20485 | 8836 ft | 294 kts | 247° |
| 2026-05-01 13:41 | 52.21892 | 13.17350 | 9652 ft | 300 kts | 247° |
| 2026-05-01 13:41 | 52.21099 | 13.14163 | 10489 ft | 305 kts | 247° |
| 2026-05-01 13:41 | 52.20290 | 13.10937 | 11245 ft | 310 kts | 247° |
| 2026-05-01 13:42 | 52.19472 | 13.07707 | 11990 ft | 314 kts | 247° |
| 2026-05-01 13:42 | 52.18629 | 13.04385 | 12757 ft | 319 kts | 247° |
| 2026-05-01 13:42 | 52.17778 | 13.01032 | 13520 ft | 323 kts | 247° |
| 2026-05-01 13:42 | 52.16909 | 12.97613 | 14261 ft | 328 kts | 247° |
| 2026-05-01 13:43 | 52.16172 | 12.94075 | 14862 ft | 336 kts | 256° |
| 2026-05-01 13:43 | 52.15619 | 12.90234 | 15015 ft | 359 kts | 257° |
| 2026-05-01 13:43 | 52.15054 | 12.86176 | 15431 ft | 370 kts | 257° |
| 2026-05-01 13:43 | 52.14494 | 12.82108 | 16065 ft | 374 kts | 257° |
| 2026-05-01 13:44 | 52.13919 | 12.77952 | 16744 ft | 378 kts | 257° |
| 2026-05-01 13:44 | 52.13333 | 12.73774 | 17424 ft | 381 kts | 257° |
| 2026-05-01 13:44 | 52.12732 | 12.69547 | 18081 ft | 384 kts | 257° |
| 2026-05-01 13:44 | 52.12123 | 12.65295 | 18745 ft | 387 kts | 257° |
| 2026-05-01 13:45 | 52.11511 | 12.61015 | 19320 ft | 390 kts | 257° |
| 2026-05-01 13:45 | 52.10890 | 12.56690 | 19891 ft | 393 kts | 257° |
| 2026-05-01 13:45 | 52.10263 | 12.52339 | 20461 ft | 396 kts | 257° |
| 2026-05-01 13:45 | 52.09637 | 12.48002 | 21025 ft | 399 kts | 257° |
| 2026-05-01 13:46 | 52.08996 | 12.43580 | 21587 ft | 403 kts | 257° |
| 2026-05-01 13:46 | 52.08346 | 12.39127 | 22145 ft | 406 kts | 257° |
| 2026-05-01 13:46 | 52.07689 | 12.34639 | 22687 ft | 409 kts | 257° |
| 2026-05-01 13:46 | 52.07025 | 12.30113 | 23311 ft | 411 kts | 257° |
| 2026-05-01 13:47 | 52.06362 | 12.25581 | 23890 ft | 414 kts | 257° |
| 2026-05-01 13:47 | 52.05692 | 12.21007 | 24340 ft | 417 kts | 257° |
| 2026-05-01 13:47 | 52.05015 | 12.16408 | 24797 ft | 419 kts | 257° |
| 2026-05-01 13:47 | 52.04333 | 12.11784 | 25250 ft | 421 kts | 257° |
| 2026-05-01 13:48 | 52.03654 | 12.07198 | 25683 ft | 423 kts | 257° |
| 2026-05-01 13:48 | 52.02963 | 12.02540 | 26114 ft | 425 kts | 257° |
| 2026-05-01 13:48 | 52.02266 | 11.97847 | 26545 ft | 428 kts | 257° |
| 2026-05-01 13:48 | 52.01567 | 11.93138 | 26969 ft | 430 kts | 257° |
| 2026-05-01 13:49 | 52.00859 | 11.88406 | 27367 ft | 432 kts | 257° |
| 2026-05-01 13:49 | 52.00151 | 11.83721 | 27770 ft | 434 kts | 257° |
| 2026-05-01 13:49 | 51.99427 | 11.78945 | 28167 ft | 436 kts | 256° |
| 2026-05-01 13:49 | 51.98670 | 11.74172 | 28584 ft | 437 kts | 255° |
| 2026-05-01 13:50 | 51.97870 | 11.69395 | 28967 ft | 439 kts | 255° |
| 2026-05-01 13:50 | 51.97040 | 11.64609 | 29351 ft | 441 kts | 254° |
| 2026-05-01 13:50 | 51.96194 | 11.59805 | 29717 ft | 443 kts | 254° |
| 2026-05-01 13:50 | 51.95348 | 11.54988 | 30073 ft | 445 kts | 255° |
| 2026-05-01 13:51 | 51.94513 | 11.50190 | 30418 ft | 448 kts | 255° |
| 2026-05-01 13:51 | 51.93718 | 11.45591 | 30685 ft | 449 kts | 255° |
| 2026-05-01 13:51 | 51.92877 | 11.40702 | 30965 ft | 451 kts | 255° |
| 2026-05-01 13:51 | 51.92030 | 11.35784 | 31240 ft | 453 kts | 255° |
| 2026-05-01 13:52 | 51.91173 | 11.30845 | 31509 ft | 455 kts | 255° |
| 2026-05-01 13:52 | 51.90311 | 11.25902 | 31761 ft | 456 kts | 254° |
| 2026-05-01 13:52 | 51.89444 | 11.20947 | 32013 ft | 457 kts | 254° |
| 2026-05-01 13:52 | 51.88590 | 11.16070 | 32419 ft | 454 kts | 254° |
| 2026-05-01 13:53 | 51.87724 | 11.11150 | 32769 ft | 454 kts | 254° |
| 2026-05-01 13:53 | 51.85994 | 11.01327 | 33503 ft | 451 kts | 254° |
| 2026-05-01 13:53 | 51.85135 | 10.96446 | 33896 ft | 450 kts | 254° |
| 2026-05-01 13:54 | 51.84273 | 10.91583 | 34242 ft | 449 kts | 254° |
| 2026-05-01 13:54 | 51.83410 | 10.86733 | 34595 ft | 448 kts | 254° |
| 2026-05-01 13:54 | 51.82548 | 10.81911 | 34926 ft | 446 kts | 255° |
| 2026-05-01 13:54 | 51.81696 | 10.77151 | 35217 ft | 445 kts | 254° |
| 2026-05-01 13:55 | 51.80835 | 10.72344 | 35501 ft | 444 kts | 254° |
| 2026-05-01 13:55 | 51.79978 | 10.67559 | 35870 ft | 441 kts | 254° |
| 2026-05-01 13:55 | 51.79122 | 10.62798 | 36174 ft | 439 kts | 254° |
| 2026-05-01 13:55 | 51.78267 | 10.58063 | 36346 ft | 439 kts | 254° |
| 2026-05-01 13:56 | 51.76565 | 10.48694 | 36374 ft | 432 kts | 253° |
| 2026-05-01 13:56 | 51.74863 | 10.39406 | 36374 ft | 431 kts | 253° |
| 2026-05-01 13:57 | 51.73171 | 10.30189 | 36368 ft | 430 kts | 254° |
| 2026-05-01 13:57 | 51.71468 | 10.20907 | 36365 ft | 430 kts | 254° |
| 2026-05-01 13:58 | 51.69754 | 10.11652 | 36370 ft | 430 kts | 254° |
| 2026-05-01 13:58 | 51.68042 | 10.02479 | 36365 ft | 430 kts | 253° |
| 2026-05-01 13:59 | 51.66318 | 9.93243 | 36366 ft | 430 kts | 253° |
| 2026-05-01 13:59 | 51.64584 | 9.84009 | 36360 ft | 430 kts | 253° |
| 2026-05-01 14:00 | 51.62856 | 9.74846 | 36356 ft | 430 kts | 254° |
| 2026-05-01 14:00 | 51.61109 | 9.65648 | 36349 ft | 430 kts | 254° |
| 2026-05-01 14:01 | 51.59349 | 9.56448 | 36358 ft | 429 kts | 254° |
| 2026-05-01 14:01 | 51.57591 | 9.47281 | 36360 ft | 429 kts | 255° |
| 2026-05-01 14:02 | 51.55831 | 9.38120 | 36361 ft | 428 kts | 253° |
| 2026-05-01 14:02 | 51.54070 | 9.29030 | 36348 ft | 428 kts | 254° |
| 2026-05-01 14:03 | 51.52288 | 9.19898 | 36345 ft | 428 kts | 253° |
| 2026-05-01 14:03 | 51.50396 | 9.10832 | 36342 ft | 429 kts | 246° |
| 2026-05-01 14:04 | 51.47552 | 9.02398 | 36334 ft | 429 kts | 243° |
| 2026-05-01 14:04 | 51.45142 | 8.95426 | 36330 ft | 429 kts | 243° |
| 2026-05-01 14:05 | 51.41775 | 8.85685 | 36331 ft | 429 kts | 243° |
| 2026-05-01 14:05 | 51.38869 | 8.77317 | 36325 ft | 429 kts | 243° |
| 2026-05-01 14:06 | 51.35963 | 8.69009 | 36326 ft | 429 kts | 243° |
| 2026-05-01 14:06 | 51.33030 | 8.60680 | 36316 ft | 429 kts | 242° |
| 2026-05-01 14:07 | 51.30104 | 8.52364 | 36326 ft | 429 kts | 242° |
| 2026-05-01 14:08 | 51.25698 | 8.39904 | 36324 ft | 428 kts | 242° |
| 2026-05-01 14:08 | 51.22780 | 8.31685 | 36331 ft | 428 kts | 242° |
| 2026-05-01 14:09 | 51.19842 | 8.23435 | 36325 ft | 427 kts | 241° |
| 2026-05-01 14:09 | 51.16892 | 8.15192 | 36315 ft | 427 kts | 242° |
| 2026-05-01 14:10 | 51.13947 | 8.06972 | 36316 ft | 426 kts | 241° |
| 2026-05-01 14:10 | 51.11003 | 7.98780 | 36330 ft | 425 kts | 242° |
| 2026-05-01 14:11 | 51.08052 | 7.90624 | 36327 ft | 424 kts | 241° |
| 2026-05-01 14:11 | 51.03636 | 7.78442 | 36330 ft | 423 kts | 242° |
| 2026-05-01 14:12 | 51.00709 | 7.70376 | 36316 ft | 423 kts | 240° |
| 2026-05-01 14:12 | 50.97758 | 7.62274 | 36315 ft | 423 kts | 242° |
| 2026-05-01 14:13 | 50.95281 | 7.55515 | 36301 ft | 423 kts | 242° |
| 2026-05-01 14:13 | 50.91837 | 7.46138 | 36299 ft | 423 kts | 241° |
| 2026-05-01 14:14 | 50.88874 | 7.38090 | 36304 ft | 422 kts | 240° |
| 2026-05-01 14:14 | 50.85902 | 7.30051 | 36299 ft | 422 kts | 241° |
| 2026-05-01 14:15 | 50.82951 | 7.22075 | 36298 ft | 422 kts | 240° |
| 2026-05-01 14:15 | 50.79967 | 7.14053 | 36298 ft | 422 kts | 241° |
| 2026-05-01 14:16 | 50.76998 | 7.06089 | 36298 ft | 422 kts | 241° |
| 2026-05-01 14:16 | 50.74013 | 6.98099 | 36300 ft | 422 kts | 240° |
| 2026-05-01 14:17 | 50.71012 | 6.90106 | 36282 ft | 421 kts | 240° |
| 2026-05-01 14:17 | 50.68515 | 6.83492 | 36284 ft | 421 kts | 239° |
| 2026-05-01 14:18 | 50.65035 | 6.74260 | 36283 ft | 421 kts | 239° |
| 2026-05-01 14:18 | 50.62543 | 6.67665 | 36272 ft | 421 kts | 240° |
| 2026-05-01 14:19 | 50.59536 | 6.59749 | 36267 ft | 420 kts | 239° |
| 2026-05-01 14:19 | 50.56527 | 6.51847 | 36265 ft | 420 kts | 240° |
| 2026-05-01 14:20 | 50.52006 | 6.40036 | 36261 ft | 420 kts | 239° |
| 2026-05-01 14:21 | 50.48274 | 6.33115 | 36257 ft | 420 kts | 219° |
| 2026-05-01 14:21 | 50.43275 | 6.28384 | 36255 ft | 420 kts | 207° |
| 2026-05-01 14:22 | 50.35436 | 6.22184 | 36248 ft | 420 kts | 207° |
| 2026-05-01 14:22 | 50.30224 | 6.18053 | 36251 ft | 421 kts | 207° |
| 2026-05-01 14:23 | 50.24994 | 6.13913 | 36258 ft | 420 kts | 207° |
| 2026-05-01 14:23 | 50.19794 | 6.09806 | 36257 ft | 420 kts | 207° |
| 2026-05-01 14:24 | 50.14568 | 6.05704 | 36264 ft | 420 kts | 207° |
| 2026-05-01 14:24 | 50.09357 | 6.01591 | 36262 ft | 420 kts | 210° |
| 2026-05-01 14:25 | 50.04753 | 5.96039 | 36270 ft | 419 kts | 223° |
| 2026-05-01 14:25 | 50.00471 | 5.89982 | 36280 ft | 418 kts | 221° |
| 2026-05-01 14:26 | 49.93997 | 5.80887 | 36273 ft | 418 kts | 221° |
| 2026-05-01 14:27 | 49.89674 | 5.74836 | 36270 ft | 418 kts | 220° |
| 2026-05-01 14:27 | 49.85353 | 5.68808 | 36273 ft | 417 kts | 220° |
| 2026-05-01 14:28 | 49.78892 | 5.59815 | 36254 ft | 418 kts | 221° |
| 2026-05-01 14:28 | 49.74551 | 5.53775 | 35852 ft | 419 kts | 221° |
| 2026-05-01 14:29 | 49.72375 | 5.50754 | 34756 ft | 422 kts | 220° |
| 2026-05-01 14:29 | 49.70236 | 5.47792 | 34502 ft | 412 kts | 220° |
| 2026-05-01 14:30 | 49.64037 | 5.38903 | 33053 ft | 401 kts | 229° |
| 2026-05-01 14:30 | 49.62448 | 5.35372 | 32547 ft | 400 kts | 239° |
| 2026-05-01 14:30 | 49.61305 | 5.31457 | 32040 ft | 401 kts | 250° |
| 2026-05-01 14:31 | 49.59639 | 5.23284 | 31057 ft | 398 kts | 255° |
| 2026-05-01 14:31 | 49.59218 | 5.19062 | 30603 ft | 398 kts | 265° |
| 2026-05-01 14:31 | 49.59204 | 5.14803 | 30110 ft | 396 kts | 269° |
| 2026-05-01 14:31 | 49.59240 | 5.10619 | 29662 ft | 393 kts | 269° |
| 2026-05-01 14:32 | 49.59274 | 5.06428 | 29227 ft | 389 kts | 269° |
| 2026-05-01 14:32 | 49.59308 | 5.02278 | 28795 ft | 385 kts | 269° |
| 2026-05-01 14:32 | 49.59344 | 4.98149 | 28378 ft | 382 kts | 269° |
| 2026-05-01 14:32 | 49.59378 | 4.94076 | 27965 ft | 378 kts | 269° |
| 2026-05-01 14:33 | 49.59408 | 4.90081 | 27533 ft | 376 kts | 268° |
| 2026-05-01 14:33 | 49.59433 | 4.86063 | 27111 ft | 373 kts | 268° |
| 2026-05-01 14:33 | 49.59453 | 4.82077 | 26668 ft | 370 kts | 268° |
| 2026-05-01 14:33 | 49.59472 | 4.78110 | 26238 ft | 368 kts | 268° |
| 2026-05-01 14:34 | 49.59492 | 4.74153 | 25819 ft | 372 kts | 268° |
| 2026-05-01 14:34 | 49.59510 | 4.70147 | 25387 ft | 373 kts | 268° |
| 2026-05-01 14:34 | 49.59530 | 4.66152 | 24955 ft | 372 kts | 268° |
| 2026-05-01 14:34 | 49.59552 | 4.62177 | 24534 ft | 370 kts | 268° |
| 2026-05-01 14:35 | 49.59573 | 4.58268 | 24119 ft | 369 kts | 268° |
| 2026-05-01 14:35 | 49.59593 | 4.54321 | 23680 ft | 367 kts | 268° |
| 2026-05-01 14:35 | 49.59611 | 4.50392 | 23232 ft | 364 kts | 268° |
| 2026-05-01 14:35 | 49.59629 | 4.46496 | 22816 ft | 361 kts | 267° |
| 2026-05-01 14:36 | 49.59643 | 4.42623 | 22397 ft | 359 kts | 267° |
| 2026-05-01 14:36 | 49.59650 | 4.38837 | 21995 ft | 356 kts | 267° |
| 2026-05-01 14:36 | 49.59655 | 4.35025 | 21590 ft | 354 kts | 267° |
| 2026-05-01 14:36 | 49.59659 | 4.31242 | 21186 ft | 351 kts | 267° |
| 2026-05-01 14:37 | 49.59664 | 4.27478 | 20782 ft | 349 kts | 267° |
| 2026-05-01 14:37 | 49.59670 | 4.23741 | 20386 ft | 347 kts | 267° |
| 2026-05-01 14:37 | 49.59675 | 4.20026 | 19990 ft | 345 kts | 267° |
| 2026-05-01 14:37 | 49.59675 | 4.16387 | 19603 ft | 343 kts | 267° |
| 2026-05-01 14:38 | 49.59671 | 4.12708 | 19201 ft | 342 kts | 267° |
| 2026-05-01 14:38 | 49.59536 | 4.09075 | 18866 ft | 336 kts | 258° |
| 2026-05-01 14:38 | 49.58936 | 4.05628 | 18470 ft | 331 kts | 245° |
| 2026-05-01 14:38 | 49.57899 | 4.02500 | 18031 ft | 326 kts | 234° |
| 2026-05-01 14:39 | 49.56666 | 3.99581 | 17673 ft | 323 kts | 234° |
| 2026-05-01 14:39 | 49.55446 | 3.96679 | 17275 ft | 321 kts | 234° |
| 2026-05-01 14:39 | 49.54247 | 3.93833 | 16898 ft | 319 kts | 234° |
| 2026-05-01 14:39 | 49.53041 | 3.90975 | 16531 ft | 317 kts | 234° |
| 2026-05-01 14:40 | 49.51842 | 3.88134 | 16174 ft | 315 kts | 234° |
| 2026-05-01 14:40 | 49.50647 | 3.85308 | 15812 ft | 314 kts | 234° |
| 2026-05-01 14:40 | 49.49456 | 3.82492 | 15454 ft | 313 kts | 233° |
| 2026-05-01 14:40 | 49.48270 | 3.79688 | 15086 ft | 312 kts | 234° |
| 2026-05-01 14:41 | 49.47312 | 3.76678 | 14735 ft | 315 kts | 248° |
| 2026-05-01 14:41 | 49.46746 | 3.73455 | 14370 ft | 316 kts | 252° |
| 2026-05-01 14:41 | 49.46202 | 3.70186 | 14043 ft | 315 kts | 252° |
| 2026-05-01 14:41 | 49.45653 | 3.66940 | 13696 ft | 312 kts | 252° |
| 2026-05-01 14:42 | 49.45106 | 3.63715 | 13304 ft | 311 kts | 252° |
| 2026-05-01 14:42 | 49.44567 | 3.60545 | 13211 ft | 306 kts | 252° |
| 2026-05-01 14:42 | 49.44029 | 3.57382 | 13226 ft | 305 kts | 252° |
| 2026-05-01 14:42 | 49.43489 | 3.54215 | 13222 ft | 306 kts | 251° |
| 2026-05-01 14:43 | 49.42955 | 3.51092 | 13219 ft | 306 kts | 251° |
| 2026-05-01 14:43 | 49.42413 | 3.47932 | 13219 ft | 305 kts | 251° |
| 2026-05-01 14:43 | 49.41838 | 3.44791 | 13222 ft | 304 kts | 246° |
| 2026-05-01 14:43 | 49.41046 | 3.41783 | 13223 ft | 303 kts | 244° |
| 2026-05-01 14:44 | 49.40242 | 3.38784 | 13219 ft | 303 kts | 244° |
| 2026-05-01 14:44 | 49.38634 | 3.32796 | 13217 ft | 303 kts | 244° |
| 2026-05-01 14:44 | 49.37833 | 3.29803 | 13218 ft | 303 kts | 244° |
| 2026-05-01 14:45 | 49.37048 | 3.26858 | 13209 ft | 303 kts | 244° |
| 2026-05-01 14:45 | 49.35445 | 3.20867 | 13213 ft | 303 kts | 244° |
| 2026-05-01 14:45 | 49.34643 | 3.17878 | 13211 ft | 303 kts | 244° |
| 2026-05-01 14:46 | 49.33836 | 3.14886 | 13080 ft | 304 kts | 244° |
| 2026-05-01 14:46 | 49.32224 | 3.08939 | 12662 ft | 300 kts | 243° |
| 2026-05-01 14:46 | 49.31434 | 3.06017 | 12453 ft | 299 kts | 244° |
| 2026-05-01 14:47 | 49.30640 | 3.03087 | 12245 ft | 297 kts | 244° |
| 2026-05-01 14:47 | 49.29846 | 3.00160 | 12037 ft | 296 kts | 244° |
| 2026-05-01 14:47 | 49.29056 | 2.97255 | 11834 ft | 295 kts | 244° |
| 2026-05-01 14:48 | 49.27504 | 2.91462 | 11420 ft | 293 kts | 248° |
| 2026-05-01 14:48 | 49.26939 | 2.88453 | 11118 ft | 293 kts | 252° |
| 2026-05-01 14:48 | 49.25917 | 2.82442 | 10524 ft | 290 kts | 252° |
| 2026-05-01 14:49 | 49.24902 | 2.76565 | 9866 ft | 284 kts | 252° |
| 2026-05-01 14:49 | 49.23871 | 2.70746 | 9087 ft | 282 kts | 252° |
| 2026-05-01 14:50 | 49.23181 | 2.66912 | 8556 ft | 280 kts | 252° |
| 2026-05-01 14:50 | 49.21814 | 2.59280 | 7468 ft | 278 kts | 252° |
| 2026-05-01 14:51 | 49.21304 | 2.56435 | 7212 ft | 275 kts | 252° |
| 2026-05-01 14:51 | 49.20273 | 2.50739 | 7198 ft | 278 kts | 252° |
| 2026-05-01 14:52 | 49.19235 | 2.45032 | 7198 ft | 278 kts | 252° |
| 2026-05-01 14:52 | 49.18720 | 2.42187 | 7120 ft | 276 kts | 252° |
| 2026-05-01 14:52 | 49.17761 | 2.36806 | 6813 ft | 249 kts | 252° |
| 2026-05-01 14:53 | 49.17321 | 2.34334 | 6638 ft | 243 kts | 252° |
| 2026-05-01 14:53 | 49.16876 | 2.31853 | 6314 ft | 241 kts | 252° |
| 2026-05-01 14:53 | 49.16425 | 2.29388 | 5965 ft | 240 kts | 252° |
| 2026-05-01 14:53 | 49.15987 | 2.26939 | 5653 ft | 237 kts | 252° |
| 2026-05-01 14:54 | 49.15549 | 2.24516 | 5309 ft | 236 kts | 251° |
| 2026-05-01 14:54 | 49.15125 | 2.22108 | 4968 ft | 234 kts | 252° |
| 2026-05-01 14:54 | 49.14706 | 2.19733 | 4716 ft | 229 kts | 251° |
| 2026-05-01 14:54 | 49.14299 | 2.17457 | 4718 ft | 212 kts | 253° |
| 2026-05-01 14:55 | 49.13910 | 2.15290 | 4932 ft | 213 kts | 252° |
| 2026-05-01 14:55 | 49.13516 | 2.13105 | 5003 ft | 213 kts | 249° |
| 2026-05-01 14:55 | 49.12737 | 2.11264 | 5010 ft | 207 kts | 215° |
| 2026-05-01 14:55 | 49.11450 | 2.10356 | 5018 ft | 207 kts | 195° |
| 2026-05-01 14:56 | 49.10060 | 2.09815 | 5012 ft | 205 kts | 192° |
| 2026-05-01 14:56 | 49.08660 | 2.09324 | 5013 ft | 207 kts | 192° |
| 2026-05-01 14:56 | 49.07262 | 2.08847 | 5008 ft | 206 kts | 192° |
| 2026-05-01 14:56 | 49.05870 | 2.08372 | 5013 ft | 204 kts | 192° |
| 2026-05-01 14:57 | 49.04489 | 2.07898 | 5010 ft | 202 kts | 192° |
| 2026-05-01 14:57 | 49.01923 | 2.07003 | 5029 ft | 183 kts | 192° |
| 2026-05-01 14:57 | 49.00692 | 2.06577 | 5017 ft | 181 kts | 192° |
| 2026-05-01 14:58 | 48.99451 | 2.06326 | 5008 ft | 181 kts | 172° |
| 2026-05-01 14:58 | 48.98363 | 2.07225 | 5008 ft | 184 kts | 132° |
| 2026-05-01 14:58 | 48.97759 | 2.08972 | 5009 ft | 189 kts | 115° |
| 2026-05-01 14:58 | 48.97319 | 2.10847 | 5009 ft | 190 kts | 112° |
| 2026-05-01 14:59 | 48.96983 | 2.12790 | 5011 ft | 192 kts | 98° |
| 2026-05-01 14:59 | 48.96991 | 2.14848 | 5015 ft | 195 kts | 90° |
| 2026-05-01 14:59 | 48.97090 | 2.16912 | 5016 ft | 195 kts | 89° |
| 2026-05-01 14:59 | 48.97204 | 2.18970 | 5000 ft | 196 kts | 89° |
| 2026-05-01 15:00 | 48.97439 | 2.23097 | 4573 ft | 194 kts | 90° |
| 2026-05-01 15:00 | 48.97554 | 2.25126 | 4322 ft | 193 kts | 88° |
| 2026-05-01 15:00 | 48.97669 | 2.27166 | 4065 ft | 193 kts | 88° |
| 2026-05-01 15:01 | 48.97781 | 2.29153 | 3813 ft | 189 kts | 89° |
| 2026-05-01 15:01 | 48.97893 | 2.31128 | 3567 ft | 186 kts | 87° |
| 2026-05-01 15:01 | 48.97966 | 2.32447 | 3409 ft | 184 kts | 86° |
| 2026-05-01 15:01 | 48.98074 | 2.34370 | 3159 ft | 180 kts | 87° |
| 2026-05-01 15:02 | 48.98179 | 2.36252 | 2916 ft | 176 kts | 86° |
| 2026-05-01 15:02 | 48.98247 | 2.37464 | 2758 ft | 170 kts | 89° |
| 2026-05-01 15:02 | 48.98377 | 2.39812 | 2472 ft | 162 kts | 88° |
| 2026-05-01 15:02 | 48.98469 | 2.41471 | 2269 ft | 156 kts | 88° |
| 2026-05-01 15:03 | 48.98558 | 2.43089 | 2073 ft | 151 kts | 88° |
| 2026-05-01 15:03 | 48.98644 | 2.44664 | 1895 ft | 149 kts | 88° |
| 2026-05-01 15:03 | 48.98730 | 2.46235 | 1673 ft | 147 kts | 92° |
| 2026-05-01 15:03 | 48.98815 | 2.47789 | 1477 ft | 147 kts | 87° |
| 2026-05-01 15:04 | 48.98898 | 2.49343 | 1318 ft | 146 kts | 86° |
| 2026-05-01 15:04 | 48.98988 | 2.50863 | 1087 ft | 143 kts | 91° |
| 2026-05-01 15:04 | 48.99077 | 2.52361 | 955 ft | 140 kts | 88° |
| 2026-05-01 15:04 | 48.99160 | 2.53827 | 734 ft | 137 kts | 90° |
| 2026-05-01 15:05 | 48.99229 | 2.55284 | 561 ft | 137 kts | 90° |
| 2026-05-01 15:05 | 48.99301 | 2.56712 | 380 ft | 136 kts | 88° |
| 2026-05-01 15:05 | 48.99370 | 2.58002 | 361 ft | 99 kts | 86° |
| 2026-05-01 15:05 | 48.99413 | 2.58837 | 360 ft | 63 kts | 85° |
| 2026-05-01 15:06 | 48.99472 | 2.59274 | 359 ft | 32 kts | 64° |
| 2026-05-01 15:06 | 48.99543 | 2.59507 | 361 ft | 19 kts | 65° |
| 2026-05-01 15:06 | 48.99594 | 2.59663 | 359 ft | 8 kts | 55° |
| 2026-05-01 15:06 | 48.99616 | 2.59695 | 354 ft | 4 kts | 31° |
| 2026-05-01 15:07 | 48.99638 | 2.59699 | 357 ft | 3 kts | 1° |
| 2026-05-01 15:07 | 48.99661 | 2.59694 | 354 ft | 7 kts | 346° |
| 2026-05-01 15:07 | 48.99741 | 2.59681 | 354 ft | 15 kts | 354° |
| 2026-05-01 15:07 | 48.99870 | 2.59665 | 354 ft | 21 kts | 355° |
| 2026-05-01 15:08 | 49.00037 | 2.59644 | 360 ft | 27 kts | 355° |
| 2026-05-01 15:08 | 49.00230 | 2.59620 | 354 ft | 30 kts | 355° |
| 2026-05-01 15:08 | 49.00407 | 2.59600 | 354 ft | 26 kts | 356° |
| 2026-05-01 15:08 | 49.00604 | 2.59576 | 354 ft | 31 kts | 355° |
| 2026-05-01 15:09 | 49.00793 | 2.59550 | 356 ft | 26 kts | 355° |
| 2026-05-01 15:09 | 49.00946 | 2.59532 | 354 ft | 15 kts | 354° |
| 2026-05-01 15:09 | 49.01001 | 2.59436 | 356 ft | 15 kts | 268° |
| 2026-05-01 15:09 | 49.00993 | 2.59256 | 354 ft | 21 kts | 264° |
| 2026-05-01 15:10 | 49.00971 | 2.59023 | 354 ft | 22 kts | 253° |
| 2026-05-01 15:10 | 49.00930 | 2.58532 | 358 ft | 24 kts | 266° |
| 2026-05-01 15:10 | 49.00917 | 2.58279 | 354 ft | 24 kts | 266° |
| 2026-05-01 15:11 | 49.00902 | 2.58014 | 354 ft | 26 kts | 266° |
| 2026-05-01 15:11 | 49.00849 | 2.57730 | 356 ft | 10 kts | 181° |
| 2026-05-01 15:11 | 49.00780 | 2.57689 | 354 ft | 12 kts | 208° |
| 2026-05-01 15:12 | 49.00694 | 2.57667 | 357 ft | 12 kts | 176° |
| 2026-05-01 15:12 | 49.00632 | 2.57615 | 358 ft | 2 kts | 264° |
| 2026-05-01 15:12 | 49.00631 | 2.57602 | 357 ft | 0 kts | 264° |
| 2026-05-01 15:13 | 49.00630 | 2.57594 | 354 ft | 0 kts | 261° |